CheckWX is a tool to help pilots better visualize weather data.  It is not intended as a substitute for an official pre-flight weather briefing.

04:17:17 UTC

KFOD TAF
Fort Dodge Regional Airport Airport
Fort Dodge, Iowa, USA
KFOD 100520Z 1006/1106 29003KT P6SM FEW050 FM100900 28004KT 5SM BR FEW050 FM101300 29005KT P6SM FEW070 FM110100 22003KT P6SM SCT150

Jul-10@
06:00 UTC

Jul-10 @ 06:00 UTC

Jul-10@
09:00 UTC

Jul-10 @ 09:00 UTC

TAF KFOD 100520Z 1006/1106 29003KT P6SM FEW050

Expired

Wind
  • 290° at 3 KTS
Cloud Levels
  • Few at 5,000' AGL

Jul-10@
09:00 UTC

Jul-10 @ 09:00 UTC

Jul-10@
13:00 UTC

Jul-10 @ 13:00 UTC

FM100900 28004KT 5SM BR FEW050

Expired

Wind
  • 280° at 4 KTS
Conditions
Mist
Cloud Levels
  • Few at 5,000' AGL

Jul-10@
13:00 UTC

Jul-10 @ 13:00 UTC

Jul-11@
01:00 UTC

Jul-11 @ 01:00 UTC

FM101300 29005KT P6SM FEW070

Expired

Wind
  • 290° at 5 KTS
Cloud Levels
  • Few at 7,000' AGL

Jul-11@
01:00 UTC

Jul-11 @ 01:00 UTC

Jul-11@
06:00 UTC

Jul-11 @ 06:00 UTC

FM110100 22003KT P6SM SCT150

From

From Standard forecast or significant change

Wind
  • 220° at 3 KTS
Cloud Levels
  • Scattered at 15,000' AGL